< < Back
Terminal Aerodrome Forecast


Current Version              Previous Versions:   1  2  3  4  5  6  7  8  9  

Terminal Aerodrome Forecast

510
FTUS42 KJAX 252300
TAFJAX
TAF
KJAX 252320Z 2600/2624 00000KT P6SM SKC
     FM261500 32005KT P6SM SKC=

Latest METAR

430
SAUS80 KWBC 260600
MTRJAX
METAR KJAX 260556Z 00000KT 9SM CLR 10/10 A2998 RMK AO2 SLP152 T01000100
10161 20100 56012


USA.gov is the U.S. government's official web portal to all federal, state and local government web resources and services.